GIA923 WAHS-WICC
Flight info
| Callsign | GIA923 |
|---|---|
| Flight time | N/A |
| Altitude | 16000 |
| Route | KIDET W16S CA |
| Aircraft | AT76/M-SDFGIRY/S |
Departure
| Time | N/A |
|---|---|
| Airport | Jenderal Ahmad Yani Airport (WAHS) |
Arrival
| Time | 2026-04-29 08:40 |
|---|---|
| Airport | Husein Sastranegara International Airport (WICC) |
| Time | Latitude | Longitude | Altitude | Speed | Heading |
|---|---|---|---|---|---|
| 2026-04-29 07:56 | -6.38720 | 109.72903 | 16175 ft | 271 kts | 282° |
| 2026-04-29 07:56 | -6.38323 | 109.71049 | 16182 ft | 271 kts | 282° |
| 2026-04-29 07:57 | -6.37923 | 109.69196 | 16180 ft | 271 kts | 282° |
| 2026-04-29 07:57 | -6.37528 | 109.67346 | 16182 ft | 271 kts | 281° |
| 2026-04-29 07:57 | -6.37135 | 109.65495 | 16177 ft | 271 kts | 282° |
| 2026-04-29 07:57 | -6.36740 | 109.63643 | 16182 ft | 271 kts | 282° |
| 2026-04-29 07:58 | -6.36344 | 109.61793 | 16178 ft | 271 kts | 282° |
| 2026-04-29 07:58 | -6.35948 | 109.59939 | 16182 ft | 271 kts | 282° |
| 2026-04-29 07:58 | -6.35552 | 109.58088 | 16180 ft | 271 kts | 282° |
| 2026-04-29 07:58 | -6.35156 | 109.56235 | 16182 ft | 271 kts | 282° |
| 2026-04-29 07:59 | -6.34759 | 109.54381 | 16179 ft | 271 kts | 282° |
| 2026-04-29 07:59 | -6.34364 | 109.52531 | 16182 ft | 271 kts | 282° |
| 2026-04-29 07:59 | -6.33972 | 109.50699 | 16182 ft | 271 kts | 282° |
| 2026-04-29 07:59 | -6.33576 | 109.48850 | 16180 ft | 271 kts | 282° |
| 2026-04-29 08:00 | -6.33177 | 109.46983 | 16102 ft | 274 kts | 282° |
| 2026-04-29 08:00 | -6.32774 | 109.45103 | 16050 ft | 275 kts | 282° |
| 2026-04-29 08:00 | -6.32372 | 109.43225 | 16023 ft | 275 kts | 282° |
| 2026-04-29 08:00 | -6.31969 | 109.41341 | 16011 ft | 275 kts | 282° |
| 2026-04-29 08:01 | -6.31565 | 109.39465 | 16005 ft | 274 kts | 282° |
| 2026-04-29 08:01 | -6.31164 | 109.37597 | 16003 ft | 273 kts | 282° |
| 2026-04-29 08:01 | -6.30769 | 109.35749 | 16001 ft | 273 kts | 282° |
| 2026-04-29 08:01 | -6.30377 | 109.33882 | 16000 ft | 271 kts | 279° |
| 2026-04-29 08:02 | -6.30482 | 109.32017 | 16002 ft | 268 kts | 253° |
| 2026-04-29 08:02 | -6.31173 | 109.30297 | 15999 ft | 263 kts | 243° |
| 2026-04-29 08:02 | -6.32049 | 109.28694 | 15999 ft | 260 kts | 240° |
| 2026-04-29 08:02 | -6.32944 | 109.27128 | 15999 ft | 257 kts | 240° |
| 2026-04-29 08:03 | -6.33815 | 109.25561 | 16000 ft | 256 kts | 241° |
| 2026-04-29 08:03 | -6.34371 | 109.24512 | 16000 ft | 256 kts | 242° |
| 2026-04-29 08:03 | -6.35188 | 109.22925 | 16000 ft | 255 kts | 242° |
| 2026-04-29 08:03 | -6.36008 | 109.21343 | 16000 ft | 255 kts | 242° |
| 2026-04-29 08:04 | -6.36825 | 109.19766 | 16000 ft | 254 kts | 242° |
| 2026-04-29 08:04 | -6.37905 | 109.17682 | 16000 ft | 254 kts | 242° |
| 2026-04-29 08:04 | -6.38721 | 109.16108 | 16001 ft | 253 kts | 242° |
| 2026-04-29 08:04 | -6.39262 | 109.15062 | 16001 ft | 253 kts | 242° |
| 2026-04-29 08:05 | -6.40071 | 109.13508 | 15466 ft | 245 kts | 243° |
| 2026-04-29 08:05 | -6.40848 | 109.12005 | 15641 ft | 241 kts | 243° |
| 2026-04-29 08:05 | -6.41620 | 109.10514 | 15721 ft | 241 kts | 243° |
| 2026-04-29 08:05 | -6.42396 | 109.09014 | 15768 ft | 243 kts | 243° |
| 2026-04-29 08:06 | -6.43181 | 109.07502 | 15789 ft | 245 kts | 243° |
| 2026-04-29 08:06 | -6.43973 | 109.05970 | 15799 ft | 248 kts | 243° |
| 2026-04-29 08:06 | -6.44772 | 109.04429 | 15802 ft | 250 kts | 243° |
| 2026-04-29 08:06 | -6.45579 | 109.02870 | 15811 ft | 252 kts | 243° |
| 2026-04-29 08:07 | -6.46390 | 109.01302 | 15814 ft | 254 kts | 243° |
| 2026-04-29 08:07 | -6.47208 | 108.99724 | 15812 ft | 255 kts | 243° |
| 2026-04-29 08:07 | -6.48029 | 108.98138 | 15815 ft | 256 kts | 243° |
| 2026-04-29 08:07 | -6.48852 | 108.96547 | 15814 ft | 257 kts | 243° |
| 2026-04-29 08:08 | -6.49681 | 108.94947 | 15813 ft | 258 kts | 243° |
| 2026-04-29 08:08 | -6.50498 | 108.93368 | 15810 ft | 258 kts | 243° |
| 2026-04-29 08:08 | -6.51331 | 108.91759 | 15815 ft | 259 kts | 243° |
| 2026-04-29 08:08 | -6.52157 | 108.90167 | 15811 ft | 259 kts | 243° |
| 2026-04-29 08:09 | -6.52989 | 108.88556 | 15815 ft | 260 kts | 243° |
| 2026-04-29 08:09 | -6.53825 | 108.86944 | 15816 ft | 260 kts | 243° |
| 2026-04-29 08:09 | -6.54659 | 108.85329 | 15816 ft | 260 kts | 243° |
| 2026-04-29 08:09 | -6.55496 | 108.83712 | 15814 ft | 260 kts | 243° |
| 2026-04-29 08:10 | -6.56331 | 108.82096 | 15817 ft | 261 kts | 243° |
| 2026-04-29 08:10 | -6.57169 | 108.80475 | 15819 ft | 261 kts | 243° |
| 2026-04-29 08:10 | -6.57996 | 108.78879 | 15819 ft | 261 kts | 243° |
| 2026-04-29 08:10 | -6.58843 | 108.77241 | 15818 ft | 261 kts | 243° |
| 2026-04-29 08:11 | -6.59681 | 108.75621 | 15817 ft | 261 kts | 243° |
| 2026-04-29 08:11 | -6.60509 | 108.74020 | 15817 ft | 261 kts | 243° |
| 2026-04-29 08:11 | -6.61347 | 108.72400 | 15819 ft | 261 kts | 243° |
| 2026-04-29 08:11 | -6.62183 | 108.70780 | 15817 ft | 261 kts | 243° |
| 2026-04-29 08:12 | -6.63020 | 108.69162 | 15817 ft | 261 kts | 243° |
| 2026-04-29 08:12 | -6.63860 | 108.67538 | 15823 ft | 261 kts | 243° |
| 2026-04-29 08:12 | -6.64697 | 108.65917 | 15822 ft | 261 kts | 243° |
| 2026-04-29 08:12 | -6.65537 | 108.64292 | 15822 ft | 261 kts | 243° |
| 2026-04-29 08:13 | -6.66375 | 108.62667 | 15821 ft | 262 kts | 243° |
| 2026-04-29 08:13 | -6.67214 | 108.61045 | 15822 ft | 262 kts | 243° |
| 2026-04-29 08:13 | -6.68052 | 108.59422 | 15825 ft | 262 kts | 243° |
| 2026-04-29 08:13 | -6.68894 | 108.57797 | 15825 ft | 261 kts | 243° |
| 2026-04-29 08:14 | -6.69730 | 108.56177 | 15826 ft | 260 kts | 244° |
| 2026-04-29 08:14 | -6.70258 | 108.54453 | 15830 ft | 258 kts | 262° |
| 2026-04-29 08:14 | -6.70506 | 108.52665 | 15827 ft | 259 kts | 265° |
| 2026-04-29 08:14 | -6.70726 | 108.50867 | 15831 ft | 260 kts | 264° |
| 2026-04-29 08:15 | -6.70983 | 108.49066 | 15832 ft | 260 kts | 262° |
| 2026-04-29 08:15 | -6.71291 | 108.47270 | 15832 ft | 261 kts | 261° |
| 2026-04-29 08:15 | -6.71620 | 108.45472 | 15829 ft | 261 kts | 262° |
| 2026-04-29 08:15 | -6.71942 | 108.43665 | 15831 ft | 262 kts | 262° |
| 2026-04-29 08:16 | -6.72261 | 108.41859 | 15830 ft | 262 kts | 261° |
| 2026-04-29 08:16 | -6.72576 | 108.40076 | 15831 ft | 262 kts | 262° |
| 2026-04-29 08:16 | -6.72895 | 108.38270 | 15835 ft | 263 kts | 261° |
| 2026-04-29 08:16 | -6.73216 | 108.36457 | 15835 ft | 263 kts | 262° |
| 2026-04-29 08:17 | -6.73536 | 108.34647 | 15834 ft | 263 kts | 261° |
| 2026-04-29 08:17 | -6.73856 | 108.32835 | 15831 ft | 263 kts | 262° |
| 2026-04-29 08:17 | -6.74174 | 108.31026 | 15834 ft | 263 kts | 262° |
| 2026-04-29 08:17 | -6.74491 | 108.29216 | 15837 ft | 263 kts | 262° |
| 2026-04-29 08:18 | -6.74813 | 108.27405 | 15838 ft | 262 kts | 262° |
| 2026-04-29 08:18 | -6.75132 | 108.25596 | 15835 ft | 262 kts | 262° |
| 2026-04-29 08:18 | -6.75450 | 108.23789 | 15842 ft | 263 kts | 262° |
| 2026-04-29 08:18 | -6.75770 | 108.21979 | 15843 ft | 263 kts | 262° |
| 2026-04-29 08:19 | -6.76088 | 108.20167 | 15841 ft | 263 kts | 262° |
| 2026-04-29 08:19 | -6.76404 | 108.18375 | 15841 ft | 263 kts | 262° |
| 2026-04-29 08:19 | -6.76722 | 108.16563 | 15844 ft | 263 kts | 262° |
| 2026-04-29 08:19 | -6.77042 | 108.14746 | 15838 ft | 263 kts | 262° |
| 2026-04-29 08:20 | -6.77362 | 108.12926 | 15767 ft | 262 kts | 262° |
| 2026-04-29 08:20 | -6.77672 | 108.11151 | 15673 ft | 252 kts | 262° |
| 2026-04-29 08:20 | -6.77975 | 108.09438 | 15543 ft | 246 kts | 262° |
| 2026-04-29 08:20 | -6.78272 | 108.07753 | 15396 ft | 243 kts | 262° |
| 2026-04-29 08:21 | -6.78567 | 108.06086 | 15238 ft | 241 kts | 262° |
| 2026-04-29 08:21 | -6.78857 | 108.04427 | 15074 ft | 240 kts | 262° |
| 2026-04-29 08:21 | -6.79146 | 108.02775 | 14938 ft | 239 kts | 262° |
| 2026-04-29 08:21 | -6.79438 | 108.01125 | 14790 ft | 239 kts | 262° |
| 2026-04-29 08:22 | -6.79722 | 107.99504 | 14647 ft | 238 kts | 262° |
| 2026-04-29 08:22 | -6.80012 | 107.97865 | 14502 ft | 237 kts | 262° |
| 2026-04-29 08:22 | -6.80299 | 107.96227 | 14366 ft | 237 kts | 262° |
| 2026-04-29 08:22 | -6.80585 | 107.94596 | 14228 ft | 236 kts | 262° |
| 2026-04-29 08:23 | -6.80869 | 107.92971 | 14082 ft | 236 kts | 262° |
| 2026-04-29 08:23 | -6.81155 | 107.91346 | 13949 ft | 236 kts | 262° |
| 2026-04-29 08:23 | -6.81441 | 107.89724 | 13816 ft | 235 kts | 262° |
| 2026-04-29 08:23 | -6.81760 | 107.88114 | 13667 ft | 234 kts | 252° |
| 2026-04-29 08:24 | -6.82717 | 107.86796 | 13471 ft | 239 kts | 214° |
| 2026-04-29 08:24 | -6.84127 | 107.85959 | 13282 ft | 233 kts | 220° |
| 2026-04-29 08:24 | -6.85172 | 107.84717 | 13082 ft | 233 kts | 234° |
| 2026-04-29 08:24 | -6.86136 | 107.83401 | 12928 ft | 232 kts | 237° |
| 2026-04-29 08:25 | -6.86643 | 107.81895 | 12713 ft | 230 kts | 273° |
| 2026-04-29 08:25 | -6.86207 | 107.80391 | 12510 ft | 223 kts | 301° |
| 2026-04-29 08:25 | -6.85453 | 107.79041 | 12347 ft | 223 kts | 303° |
| 2026-04-29 08:25 | -6.84646 | 107.77680 | 12178 ft | 224 kts | 304° |
| 2026-04-29 08:26 | -6.83846 | 107.76360 | 12012 ft | 224 kts | 305° |
| 2026-04-29 08:26 | -6.83076 | 107.75005 | 11865 ft | 224 kts | 294° |
| 2026-04-29 08:26 | -6.83005 | 107.73430 | 11603 ft | 231 kts | 257° |
| 2026-04-29 08:26 | -6.83490 | 107.71886 | 11447 ft | 231 kts | 253° |
| 2026-04-29 08:27 | -6.84014 | 107.70348 | 11308 ft | 232 kts | 252° |
| 2026-04-29 08:27 | -6.84557 | 107.68813 | 11157 ft | 232 kts | 251° |
| 2026-04-29 08:27 | -6.85110 | 107.67280 | 11031 ft | 233 kts | 251° |
| 2026-04-29 08:27 | -6.85667 | 107.65764 | 10980 ft | 229 kts | 251° |
| 2026-04-29 08:28 | -6.86203 | 107.64268 | 10938 ft | 224 kts | 255° |
| 2026-04-29 08:28 | -6.86595 | 107.62764 | 10904 ft | 220 kts | 258° |
| 2026-04-29 08:28 | -6.86929 | 107.61285 | 10859 ft | 218 kts | 260° |
| 2026-04-29 08:28 | -6.87225 | 107.59791 | 10763 ft | 218 kts | 261° |
| 2026-04-29 08:29 | -6.87517 | 107.58280 | 10613 ft | 222 kts | 261° |
| 2026-04-29 08:29 | -6.87809 | 107.56751 | 10469 ft | 223 kts | 261° |
| 2026-04-29 08:29 | -6.88100 | 107.55204 | 10301 ft | 226 kts | 261° |
| 2026-04-29 08:29 | -6.88506 | 107.53678 | 10105 ft | 228 kts | 241° |
| 2026-04-29 08:30 | -6.89642 | 107.52586 | 9889 ft | 230 kts | 202° |
| 2026-04-29 08:30 | -6.92510 | 107.53106 | 9547 ft | 217 kts | 131° |
| 2026-04-29 08:30 | -6.93547 | 107.54203 | 9424 ft | 214 kts | 131° |
| 2026-04-29 08:31 | -6.94601 | 107.55262 | 9266 ft | 214 kts | 132° |
| 2026-04-29 08:31 | -6.95662 | 107.56328 | 9028 ft | 218 kts | 132° |
| 2026-04-29 08:31 | -6.96747 | 107.57423 | 8811 ft | 220 kts | 131° |
| 2026-04-29 08:31 | -6.97816 | 107.58509 | 8625 ft | 222 kts | 131° |
| 2026-04-29 08:32 | -6.98839 | 107.59676 | 8457 ft | 216 kts | 116° |
| 2026-04-29 08:32 | -6.99305 | 107.61076 | 8266 ft | 210 kts | 103° |
| 2026-04-29 08:32 | -6.99702 | 107.62483 | 8123 ft | 212 kts | 104° |
| 2026-04-29 08:32 | -7.00157 | 107.63897 | 7947 ft | 213 kts | 107° |
| 2026-04-29 08:33 | -7.00696 | 107.65288 | 7769 ft | 214 kts | 110° |
| 2026-04-29 08:33 | -7.01305 | 107.66688 | 7384 ft | 224 kts | 111° |
| 2026-04-29 08:33 | -7.01936 | 107.68101 | 6921 ft | 215 kts | 112° |
| 2026-04-29 08:33 | -7.02263 | 107.69500 | 6503 ft | 201 kts | 90° |
| 2026-04-29 08:34 | -7.02267 | 107.70896 | 6057 ft | 197 kts | 88° |
| 2026-04-29 08:34 | -7.01888 | 107.72177 | 5514 ft | 194 kts | 53° |
| 2026-04-29 08:34 | -7.00765 | 107.72900 | 4889 ft | 195 kts | 21° |
| 2026-04-29 08:34 | -6.99453 | 107.73265 | 4331 ft | 195 kts | 13° |
| 2026-04-29 08:35 | -6.98117 | 107.73455 | 3723 ft | 194 kts | 7° |
| 2026-04-29 08:35 | -6.96804 | 107.73493 | 3221 ft | 185 kts | 358° |
| 2026-04-29 08:35 | -6.95638 | 107.73013 | 2794 ft | 183 kts | 326° |
| 2026-04-29 08:35 | -6.94795 | 107.72073 | 2546 ft | 172 kts | 301° |
| 2026-04-29 08:36 | -6.94391 | 107.71012 | 2560 ft | 160 kts | 289° |
| 2026-04-29 08:36 | -6.94092 | 107.69966 | 2535 ft | 146 kts | 287° |
| 2026-04-29 08:36 | -6.93836 | 107.69061 | 2521 ft | 124 kts | 288° |
| 2026-04-29 08:36 | -6.93601 | 107.68270 | 2497 ft | 114 kts | 290° |
| 2026-04-29 08:37 | -6.93383 | 107.67486 | 2433 ft | 119 kts | 289° |
| 2026-04-29 08:37 | -6.93133 | 107.66685 | 2477 ft | 120 kts | 289° |
| 2026-04-29 08:37 | -6.92899 | 107.65890 | 2513 ft | 116 kts | 290° |
| 2026-04-29 08:37 | -6.92672 | 107.65107 | 2534 ft | 118 kts | 290° |
| 2026-04-29 08:38 | -6.92387 | 107.64353 | 2652 ft | 112 kts | 294° |
| 2026-04-29 08:38 | -6.92118 | 107.63615 | 2742 ft | 121 kts | 290° |
| 2026-04-29 08:38 | -6.91882 | 107.62808 | 2885 ft | 117 kts | 295° |
| 2026-04-29 08:38 | -6.91619 | 107.62016 | 2967 ft | 121 kts | 290° |
| 2026-04-29 08:39 | -6.91338 | 107.61199 | 2898 ft | 130 kts | 294° |
| 2026-04-29 08:39 | -6.91024 | 107.60327 | 2807 ft | 137 kts | 291° |
| 2026-04-29 08:39 | -6.90685 | 107.59402 | 2610 ft | 141 kts | 293° |
| 2026-04-29 08:39 | -6.90376 | 107.58532 | 2403 ft | 123 kts | 291° |
| 2026-04-29 08:40 | -6.90190 | 107.58000 | 2395 ft | 39 kts | 287° |
| 2026-04-29 08:40 | -6.90124 | 107.57795 | 2397 ft | 19 kts | 290° |
| 2026-04-29 08:40 | -6.90110 | 107.57739 | 2395 ft | 13 kts | 266° |
| 2026-04-29 08:40 | -6.90195 | 107.57688 | 2396 ft | 11 kts | 197° |
| 2026-04-29 08:41 | -6.90267 | 107.57702 | 2396 ft | 12 kts | 114° |
| 2026-04-29 08:41 | -6.90258 | 107.57765 | 2399 ft | 8 kts | 84° |
| 2026-04-29 08:41 | -6.90267 | 107.57828 | 2394 ft | 10 kts | 99° |
| 2026-04-29 08:41 | -6.90278 | 107.57857 | 2394 ft | 4 kts | 141° |
| 2026-04-29 08:42 | -6.90289 | 107.57859 | 2393 ft | 0 kts | 178° |